createdAt,value
2018-01-19T00:01:30.292Z,1.30
2018-01-19T00:03:59.696Z,1.40
2018-01-19T00:06:28.100Z,1.50
2018-01-19T00:08:56.473Z,1.50
2018-01-19T00:11:25.603Z,1.50
2018-01-19T00:13:54.771Z,1.50
2018-01-19T00:16:23.131Z,1.50
2018-01-19T00:18:51.519Z,1.50
2018-01-19T00:21:19.911Z,1.60
2018-01-19T00:23:48.278Z,1.60
2018-01-19T00:26:16.642Z,1.60
2018-01-19T00:28:45.019Z,1.60
2018-01-19T00:31:13.370Z,1.60
2018-01-19T00:33:41.730Z,1.60
2018-01-19T00:36:10.897Z,1.70
2018-01-19T00:38:39.268Z,1.60
2018-01-19T00:41:07.660Z,1.70
2018-01-19T00:43:37.191Z,1.60
2018-01-19T00:46:06.327Z,1.60
2018-01-19T00:48:34.719Z,1.60
2018-01-19T00:51:03.157Z,1.70
2018-01-19T00:53:31.528Z,1.70
2018-01-19T00:55:59.891Z,1.60
2018-01-19T00:58:29.416Z,1.60
2018-01-19T01:00:57.772Z,1.70
2018-01-19T01:03:26.891Z,1.70
2018-01-19T01:05:55.341Z,1.70
2018-01-19T01:08:24.268Z,1.70
2018-01-19T01:10:52.633Z,1.80
2018-01-19T01:13:21.787Z,1.90
2018-01-19T01:15:50.143Z,1.80
2018-01-19T01:18:18.503Z,1.90
2018-01-19T01:20:46.891Z,1.90
2018-01-19T01:23:15.270Z,1.90
2018-01-19T01:25:43.619Z,2.00
2018-01-19T01:28:12.000Z,2.00
2018-01-19T01:30:40.371Z,2.00
2018-01-19T01:33:09.506Z,2.10
2018-01-19T01:35:37.906Z,2.10
2018-01-19T01:38:07.042Z,2.10
2018-01-19T01:40:36.180Z,2.10
2018-01-19T01:43:05.363Z,2.10
2018-01-19T01:45:33.743Z,2.10
2018-01-19T01:48:02.091Z,2.20
2018-01-19T01:50:31.252Z,2.10
2018-01-19T01:52:59.611Z,2.10
2018-01-19T01:55:27.964Z,2.10
2018-01-19T01:57:56.355Z,2.10
2018-01-19T02:00:24.721Z,2.20
2018-01-19T02:02:53.118Z,2.20
2018-01-19T02:05:21.488Z,2.30
2018-01-19T02:07:49.843Z,2.20
2018-01-19T02:10:18.210Z,2.20
2018-01-19T02:12:47.369Z,2.30
2018-01-19T02:15:15.755Z,2.30
2018-01-19T02:17:44.132Z,2.30
2018-01-19T02:20:12.512Z,2.30
2018-01-19T02:22:40.887Z,2.30
2018-01-19T02:25:09.264Z,2.40
2018-01-19T02:27:37.650Z,2.40
2018-01-19T02:30:05.682Z,2.50
2018-01-19T02:32:34.033Z,2.40
2018-01-19T02:35:03.237Z,2.40
2018-01-19T02:37:31.592Z,2.50
2018-01-19T02:40:00.717Z,2.40
2018-01-19T02:42:29.114Z,2.40
2018-01-19T02:44:57.581Z,2.40
2018-01-19T02:47:25.999Z,2.30
2018-01-19T02:49:54.379Z,2.30
2018-01-19T02:52:22.743Z,2.30
2018-01-19T02:54:51.124Z,2.30
2018-01-19T02:57:19.499Z,2.40
2018-01-19T02:59:47.851Z,2.40
2018-01-19T03:02:16.220Z,2.40
2018-01-19T03:04:44.708Z,2.40
2018-01-19T03:07:13.091Z,2.30
2018-01-19T03:09:41.450Z,2.30
2018-01-19T03:12:09.807Z,2.30
2018-01-19T03:14:38.947Z,2.30
2018-01-19T03:17:07.315Z,2.30
2018-01-19T03:19:35.703Z,2.40
2018-01-19T03:22:04.071Z,2.40
2018-01-19T03:24:32.423Z,2.40
2018-01-19T03:27:00.937Z,2.50
2018-01-19T03:29:29.301Z,2.50
2018-01-19T03:31:57.681Z,2.50
2018-01-19T03:34:26.045Z,2.50
2018-01-19T03:36:54.415Z,2.50
2018-01-19T03:39:23.553Z,2.60
2018-01-19T03:41:51.906Z,2.60
2018-01-19T03:44:20.283Z,2.60
2018-01-19T03:46:48.638Z,2.50
2018-01-19T03:49:17.776Z,2.50
2018-01-19T03:51:46.154Z,2.50
2018-01-19T03:54:14.523Z,2.50
2018-01-19T03:56:42.901Z,2.50
2018-01-19T03:59:11.280Z,2.50
2018-01-19T04:01:39.668Z,2.50
2018-01-19T04:04:08.064Z,2.50
2018-01-19T04:06:36.423Z,2.40
2018-01-19T04:09:04.148Z,2.50
2018-01-19T04:11:33.279Z,2.60
2018-01-19T04:14:01.688Z,2.50
2018-01-19T04:16:30.051Z,2.50
2018-01-19T04:18:58.432Z,2.40
2018-01-19T04:21:27.555Z,2.40
2018-01-19T04:23:55.925Z,2.40
2018-01-19T12:19:41.608Z,5.20
2018-01-19T12:22:09.985Z,5.10
2018-01-19T12:24:38.344Z,5.00
2018-01-19T12:27:07.487Z,4.80
2018-01-19T12:29:35.851Z,4.80
2018-01-19T12:32:04.217Z,4.40
2018-01-19T12:34:32.642Z,4.40
2018-01-19T12:37:01.176Z,4.40
2018-01-19T12:39:29.575Z,4.40
2018-01-19T12:41:57.925Z,4.30
2018-01-19T12:44:27.819Z,4.30
2018-01-19T12:46:56.972Z,4.50
2018-01-19T12:49:25.350Z,4.50
2018-01-19T12:51:53.722Z,4.40
2018-01-19T12:54:22.857Z,4.40
2018-01-19T12:56:51.242Z,4.40
2018-01-19T12:59:19.607Z,4.50
2018-01-19T13:01:48.043Z,4.40
2018-01-19T13:04:16.226Z,4.40
2018-01-19T13:06:44.597Z,4.40
2018-01-19T13:09:12.972Z,4.20
2018-01-19T13:11:41.333Z,4.20
2018-01-19T13:14:09.712Z,4.10
2018-01-19T13:16:38.838Z,3.90
2018-01-19T13:19:07.199Z,3.90
2018-01-19T13:21:35.575Z,4.00
2018-01-19T13:24:04.066Z,4.20
2018-01-19T13:26:32.445Z,4.30
2018-01-19T13:29:00.814Z,4.20
2018-01-19T13:31:29.204Z,4.20
2018-01-19T13:33:57.554Z,4.20
2018-01-19T13:36:25.924Z,4.20
2018-01-19T13:38:54.293Z,4.30
2018-01-19T13:41:23.434Z,4.30
2018-01-19T13:43:51.916Z,4.20
2018-01-19T13:46:20.286Z,4.40
2018-01-19T13:48:48.489Z,4.30
2018-01-19T13:51:16.885Z,4.10
2018-01-19T13:53:45.326Z,4.00
2018-01-19T13:56:14.027Z,4.20
2018-01-19T13:58:42.405Z,4.30
2018-01-19T14:01:10.862Z,4.20
2018-01-19T14:03:40.059Z,4.20
2018-01-19T14:06:08.107Z,4.20
2018-01-19T14:08:36.466Z,4.20
2018-01-19T14:11:05.704Z,4.30
2018-01-19T14:13:34.080Z,4.30
2018-01-19T14:16:02.437Z,3.90
2018-01-19T14:18:30.895Z,3.90
2018-01-19T14:21:00.175Z,3.90
2018-01-19T14:23:28.573Z,3.90
2018-01-19T14:25:57.696Z,4.00
2018-01-19T14:28:26.043Z,4.00
2018-01-19T14:30:54.422Z,4.10
2018-01-19T14:33:22.787Z,4.00
2018-01-19T14:35:51.179Z,4.10
2018-01-19T14:38:20.336Z,4.10
2018-01-19T14:40:48.696Z,4.10
2018-01-19T14:43:17.086Z,4.00
2018-01-19T14:45:45.555Z,3.90
2018-01-19T14:48:13.991Z,3.90
2018-01-19T14:50:43.126Z,3.90
2018-01-19T14:53:11.489Z,3.90
2018-01-19T14:55:39.891Z,3.80
2018-01-19T14:58:08.265Z,3.70
2018-01-19T15:00:37.277Z,3.60
2018-01-19T15:03:05.643Z,3.50
2018-01-19T15:05:34.076Z,3.50
2018-01-19T15:08:03.218Z,3.30
2018-01-19T15:10:31.594Z,3.30
2018-01-19T15:12:59.980Z,3.30
2018-01-19T15:15:28.337Z,3.30
2018-01-19T15:17:56.696Z,3.40
2018-01-19T15:20:25.921Z,3.40
2018-01-19T15:22:54.283Z,3.30
2018-01-19T15:25:22.766Z,3.30
2018-01-19T15:27:52.131Z,3.40
2018-01-19T15:30:20.635Z,3.40
2018-01-19T15:32:49.784Z,3.50
2018-01-19T15:35:18.240Z,3.50
2018-01-19T15:37:46.672Z,3.40
2018-01-19T15:40:14.700Z,3.40
2018-01-19T15:42:43.055Z,3.30
2018-01-19T15:45:11.431Z,3.20
2018-01-19T15:47:39.799Z,3.10
2018-01-19T15:50:08.183Z,3.10
2018-01-19T15:52:36.551Z,3.00
2018-01-19T15:55:04.923Z,3.10
2018-01-19T15:57:33.303Z,3.00
2018-01-19T16:00:02.425Z,2.80
2018-01-19T16:02:30.818Z,2.80
2018-01-19T16:04:59.770Z,2.80
2018-01-19T16:07:28.901Z,2.80
2018-01-19T16:09:57.279Z,2.80
2018-01-19T16:12:25.464Z,2.70
2018-01-19T16:14:54.619Z,2.60
2018-01-19T16:17:23.075Z,2.60
2018-01-19T16:19:51.447Z,2.50
2018-01-19T16:22:19.819Z,2.50
2018-01-19T16:24:48.180Z,2.50
2018-01-19T16:27:16.557Z,2.60
2018-01-19T16:29:45.291Z,2.70
2018-01-19T16:32:14.416Z,2.70
2018-01-19T16:34:42.779Z,2.70
2018-01-19T16:37:11.276Z,2.70
2018-01-19T16:39:39.709Z,2.70
2018-01-19T16:42:08.075Z,2.60
2018-01-19T16:44:36.555Z,2.60
2018-01-19T16:47:04.935Z,2.60
2018-01-19T16:49:33.407Z,2.60
2018-01-19T16:52:01.764Z,2.60
2018-01-19T16:54:30.157Z,2.60
2018-01-19T16:56:58.528Z,2.50
2018-01-19T16:59:26.948Z,2.50
2018-01-19T17:01:56.082Z,2.50
2018-01-19T17:04:24.816Z,2.50
2018-01-19T17:06:53.209Z,2.50
2018-01-19T17:09:22.339Z,2.60
2018-01-19T17:11:50.576Z,2.50
2018-01-19T17:14:19.710Z,2.60
2018-01-19T17:16:48.942Z,2.60
2018-01-19T17:19:17.337Z,2.50
2018-01-19T17:21:45.714Z,2.70
2018-01-19T17:24:14.085Z,3.20
2018-01-19T17:26:42.455Z,2.60
2018-01-19T17:29:10.827Z,2.80
2018-01-19T17:31:39.260Z,1.10
2018-01-19T17:34:07.656Z,2.60
2018-01-19T17:36:36.016Z,2.50
2018-01-19T17:39:03.732Z,2.50
2018-01-19T17:41:32.116Z,2.30
2018-01-19T17:44:00.491Z,2.50
2018-01-19T17:46:28.897Z,2.40
2018-01-19T17:48:57.767Z,2.40
2018-01-19T17:51:26.136Z,2.30
2018-01-19T17:53:54.507Z,2.40
2018-01-19T17:56:23.531Z,2.20
2018-01-19T17:58:51.895Z,2.40
2018-01-19T18:01:20.286Z,2.60
2018-01-19T18:03:49.611Z,2.60
2018-01-19T18:06:17.985Z,2.60
2018-01-19T18:08:46.418Z,2.60
2018-01-19T18:11:14.864Z,2.60
2018-01-19T18:13:43.273Z,2.60
2018-01-19T18:16:11.653Z,2.60
2018-01-19T18:18:40.710Z,2.60
2018-01-19T18:21:09.133Z,2.50
2018-01-19T18:23:38.452Z,2.60
2018-01-19T18:26:06.813Z,2.50
2018-01-19T18:28:35.195Z,2.60
2018-01-19T18:31:03.563Z,2.60
2018-01-19T18:33:32.124Z,2.70
2018-01-19T18:36:00.563Z,2.70
2018-01-19T18:38:29.703Z,2.70
2018-01-19T18:40:58.108Z,2.70
2018-01-19T18:43:26.490Z,2.70
2018-01-19T18:45:55.212Z,2.70
2018-01-19T18:48:24.366Z,2.80
2018-01-19T18:50:52.764Z,2.80
2018-01-19T18:53:21.912Z,2.80
2018-01-19T18:55:50.323Z,2.80
2018-01-19T18:58:18.703Z,2.90
2018-01-19T19:00:47.077Z,2.90
2018-01-19T19:03:15.640Z,2.90
2018-01-19T19:05:44.044Z,2.90
2018-01-19T19:08:12.480Z,2.90
2018-01-19T19:10:40.875Z,2.90
2018-01-19T19:13:10.052Z,2.90
2018-01-19T19:15:38.427Z,2.90
2018-01-19T19:18:06.813Z,2.90
2018-01-19T19:20:35.169Z,2.90
2018-01-19T19:23:03.599Z,2.90
2018-01-19T19:25:31.951Z,2.90
2018-01-19T19:28:00.918Z,2.90
2018-01-19T19:30:29.286Z,2.90
2018-01-19T19:32:57.468Z,2.90
2018-01-19T19:35:25.686Z,2.90
2018-01-19T19:37:54.069Z,2.90
2018-01-19T19:40:22.648Z,2.90
2018-01-19T19:42:51.022Z,2.90
2018-01-19T19:45:19.376Z,2.90
2018-01-19T19:47:47.756Z,2.80
2018-01-19T19:50:16.122Z,2.80
2018-01-19T19:52:45.356Z,2.80
2018-01-19T19:55:13.718Z,2.80
2018-01-19T19:57:42.080Z,2.70
2018-01-19T20:00:10.527Z,2.70
2018-01-19T20:02:39.873Z,2.70
2018-01-19T20:05:08.252Z,2.70
2018-01-19T20:07:36.623Z,2.60
2018-01-19T20:10:04.984Z,2.60
2018-01-19T20:12:33.364Z,2.60
2018-01-19T20:15:01.743Z,2.60
2018-01-19T20:17:30.121Z,2.50
2018-01-19T20:19:58.483Z,2.50
2018-01-19T20:22:27.611Z,2.40
2018-01-19T20:24:55.997Z,2.40
2018-01-19T20:27:24.398Z,2.40
2018-01-19T20:29:52.935Z,2.40
2018-01-19T20:32:21.321Z,2.40
2018-01-19T20:34:49.705Z,2.40
2018-01-19T20:37:18.077Z,2.40
2018-01-19T20:39:46.439Z,2.40
2018-01-19T20:42:15.596Z,2.40
2018-01-19T20:44:44.005Z,2.40
2018-01-19T20:47:13.177Z,2.50
2018-01-19T20:49:41.574Z,2.50
2018-01-19T20:52:10.698Z,2.50
2018-01-19T20:54:39.073Z,2.50
2018-01-19T20:57:07.463Z,2.50
2018-01-19T20:59:35.827Z,2.50
2018-01-19T21:02:04.301Z,2.50
2018-01-19T21:04:32.685Z,2.40
2018-01-19T21:07:00.902Z,2.40
2018-01-19T21:09:29.096Z,2.40
2018-01-19T21:11:57.820Z,2.40
2018-01-19T21:14:26.237Z,2.40
2018-01-19T21:16:54.652Z,2.40
2018-01-19T21:19:23.799Z,2.50
2018-01-19T21:21:52.941Z,2.40
2018-01-19T21:24:21.301Z,2.40
2018-01-19T21:26:49.690Z,2.40
2018-01-19T21:29:19.999Z,2.30
2018-01-19T21:31:48.356Z,2.20
2018-01-19T21:34:17.121Z,2.20
2018-01-19T21:36:45.665Z,2.20
2018-01-19T21:39:14.227Z,2.20
2018-01-19T21:41:42.604Z,2.20
2018-01-19T21:44:12.317Z,2.10
2018-01-19T21:46:40.673Z,2.00
2018-01-19T21:49:09.097Z,2.10
2018-01-19T21:51:37.455Z,2.00
2018-01-19T21:54:05.811Z,2.00
2018-01-19T21:56:34.651Z,2.00
2018-01-19T21:59:03.776Z,2.00
2018-01-19T22:01:32.139Z,2.00
2018-01-19T22:04:01.666Z,2.00
2018-01-19T23:22:29.735Z,2.00
2018-01-19T23:24:58.107Z,1.60
2018-01-19T23:27:26.471Z,1.70
2018-01-19T23:29:55.145Z,1.80
2018-01-19T23:32:23.504Z,1.80
2018-01-19T23:34:52.641Z,1.90
2018-01-19T23:37:21.298Z,1.90
2018-01-19T23:39:49.667Z,2.00
2018-01-19T23:42:18.796Z,2.00
2018-01-19T23:44:47.176Z,2.00
2018-01-19T23:47:15.550Z,2.00
2018-01-19T23:49:43.903Z,2.00
2018-01-19T23:52:13.079Z,2.00
2018-01-19T23:54:42.250Z,2.00
2018-01-19T23:57:18.543Z,2.00
2018-01-19T23:59:47.666Z,2.10
